Flight Track Log - Related Links

Times and Time Zones

All times are in EDT time to prevent confusion due to time zone crossing. See the CHB6225 flight status page for this flight to view local times or setup timezone preferences in your user account.

Time Position Orientation Groundspeed Altitude Reporting Facility
EDT Latitude Longitude Course Direction KTS MPH feet Rate Location/Type
Sun 07:41:00 PM 30.0263 106.3628 322° Northwest  Level Estimated
Sun 07:42:00 PM 30.0774 106.3163 322° Northwest  Level Estimated
Sun 07:43:00 PM 30.1285 106.2697 322° Northwest  Level Estimated
Sun 07:44:00 PM 30.1795 106.2231 322° Northwest  Level Estimated
Sun 07:45:00 PM 30.2306 106.1764 322° Northwest  Level Estimated
Sun 07:46:00 PM 30.2816 106.1297 322° Northwest  Level Estimated
Sun 07:47:00 PM 30.3326 106.0829 322° Northwest  Level Estimated
Sun 07:48:00 PM 30.3836 106.0361 322° Northwest  Level Estimated
Sun 07:49:00 PM 30.4346 105.9892 322° Northwest  Level Estimated
Sun 07:50:00 PM 30.4855 105.9423 322° Northwest  Level Estimated
Sun 07:51:00 PM 30.5365 105.8953 322° Northwest  Level Estimated
Sun 07:52:00 PM 30.5874 105.8483 322° Northwest  Level Estimated
Sun 07:53:00 PM 30.6383 105.8012 322° Northwest  Level Estimated
Sun 07:54:00 PM 30.6892 105.7541 321° Northwest  Level Estimated
Sun 07:55:00 PM 30.7401 105.7070 321° Northwest  Level Estimated
Sun 07:56:00 PM 30.7909 105.6598 321° Northwest  Level Estimated
Sun 07:57:00 PM 30.8418 105.6125 321° Northwest  Level Estimated
Sun 07:58:00 PM 30.8926 105.5652 321° Northwest  Level Estimated
Sun 07:59:00 PM 30.9434 105.5178 321° Northwest  Level Estimated
Sun 08:00:00 PM 30.9942 105.4704 321° Northwest  Level Estimated
Sun 08:01:00 PM 31.0450 105.4229 321° Northwest  Level Estimated
Sun 08:02:00 PM 31.0957 105.3754 321° Northwest  Level Estimated
Sun 08:03:00 PM 31.1465 105.3278 321° Northwest  Level Estimated
Sun 08:04:00 PM 31.1972 105.2802 321° Northwest  Level Estimated
Sun 08:05:00 PM 31.2479 105.2325 321° Northwest  Level Estimated
Sun 08:06:00 PM 31.2986 105.1848 321° Northwest  Level Estimated
Sun 08:07:00 PM 31.3493 105.1370 321° Northwest  Level Estimated
Sun 08:08:00 PM 31.3999 105.0892 321° Northwest  Level Estimated
Sun 08:09:00 PM 31.4505 105.0413 321° Northwest  Level Estimated
Sun 08:10:00 PM 31.5012 104.9934 321° Northwest  Level Estimated
Sun 08:11:00 PM 31.5518 104.9454 321° Northwest  Level Estimated
Sun 08:12:00 PM 31.6023 104.8974 321° Northwest  Level Estimated
Sun 08:13:00 PM 31.6529 104.8493 321° Northwest  Level Estimated
Sun 08:14:00 PM 31.7034 104.8012 321° Northwest  Level Estimated
Sun 08:15:00 PM 31.7540 104.7530 321° Northwest  Level Estimated
Sun 08:16:00 PM 31.8045 104.7047 321° Northwest  Level Estimated
Sun 08:17:00 PM 31.8549 104.6564 321° Northwest  Level Estimated
Sun 08:18:00 PM 31.9054 104.6081 321° Northwest  Level Estimated
Sun 08:19:00 PM 31.9559 104.5597 321° Northwest  Level Estimated
Sun 08:20:00 PM 32.0063 104.5113 321° Northwest  Level Estimated
Sun 08:21:00 PM 32.0567 104.4627 321° Northwest  Level Estimated
Sun 08:22:00 PM 32.1071 104.4142 321° Northwest  Level Estimated
Sun 08:23:00 PM 32.1575 104.3656 321° Northwest  Level Estimated
Sun 08:24:00 PM 32.2079 104.3169 321° Northwest  Level Estimated
Sun 08:25:00 PM 32.2582 104.2682 321° Northwest  Level Estimated
Sun 08:26:00 PM 32.3085 104.2194 321° Northwest  Level Estimated
Sun 08:27:00 PM 32.3588 104.1706 321° Northwest  Level Estimated
Sun 08:28:00 PM 32.4091 104.1217 321° Northwest  Level Estimated
Sun 08:29:00 PM 32.4594 104.0727 321° Northwest  Level Estimated
Sun 08:30:00 PM 32.5096 104.0238 321° Northwest  Level Estimated
Sun 08:31:00 PM 32.5598 103.9747 321° Northwest  Level Estimated
Sun 08:32:00 PM 32.6101 103.9256 321° Northwest  Level Estimated
Sun 08:33:00 PM 32.6602 103.8764 320° Northwest  Level Estimated
Sun 08:34:00 PM 32.7104 103.8272 320° Northwest  Level Estimated
Sun 08:35:00 PM 32.7606 103.7779 320° Northwest  Level Estimated
Sun 08:36:00 PM 32.8107 103.7286 320° Northwest  Level Estimated
Sun 08:37:00 PM 32.8570 103.6830 320° Northwest  Level Estimated
Sun 08:38:00 PM 32.8570 103.6830 North  Level Estimated
Sun 08:39:00 PM 32.8570 103.6830 North  Level Estimated
Sun 08:40:00 PM 32.8570 103.6830 North  Level Estimated
Sun 08:41:00 PM 32.8570 103.6830 North  Level Estimated
Sun 08:42:00 PM 32.8570 103.6830 North  Level Estimated
Sun 08:43:00 PM 32.8570 103.6830 North  Level Estimated
Sun 08:44:00 PM 32.8570 103.6830 North  Level Estimated
Sun 08:45:00 PM 32.8570 103.6830 North  Level Estimated
Sun 08:46:00 PM 32.8570 103.6830 North  Level Estimated

Login

Don't have an account? Register now (free) for customized features, flight alerts, and more!